createdAt,value
2023-03-28T00:00:32.763Z,64.98
2023-03-28T00:02:34.607Z,64.50
2023-03-28T00:04:36.498Z,65.12
2023-03-28T00:06:38.288Z,65.51
2023-03-28T00:08:41.035Z,65.55
2023-03-28T00:10:42.690Z,66.33
2023-03-28T00:12:44.790Z,66.31
2023-03-28T00:14:46.631Z,66.28
2023-03-28T00:16:49.817Z,66.44
2023-03-28T00:18:51.832Z,65.76
2023-03-28T00:20:53.475Z,65.21
2023-03-28T00:22:55.297Z,65.19
2023-03-28T00:24:56.980Z,64.85
2023-03-28T00:26:58.815Z,65.27
2023-03-28T00:29:02.324Z,65.86
2023-03-28T00:31:05.703Z,65.84
2023-03-28T00:33:09.128Z,65.91
2023-03-28T00:35:11.029Z,66.26
2023-03-28T00:37:12.837Z,65.90
2023-03-28T00:39:14.738Z,65.79
2023-03-28T00:41:17.323Z,66.22
2023-03-28T00:43:35.374Z,65.04
2023-03-28T00:45:37.133Z,65.61
2023-03-28T00:47:43.550Z,65.63
2023-03-28T00:49:49.425Z,65.71
2023-03-28T00:51:56.951Z,65.45
2023-03-28T00:54:01.696Z,65.65
2023-03-28T00:56:10.036Z,66.12
2023-03-28T00:58:15.832Z,65.94
2023-03-28T01:00:18.584Z,65.91
2023-03-28T01:02:20.706Z,65.44
2023-03-28T01:04:24.085Z,65.83
2023-03-28T01:06:32.030Z,65.76
2023-03-28T01:08:37.702Z,66.29
2023-03-28T01:10:40.942Z,66.11
2023-03-28T01:12:44.028Z,66.13
2023-03-28T01:14:47.955Z,66.17
2023-03-28T01:16:50.374Z,66.38
2023-03-28T01:18:52.803Z,65.70
2023-03-28T01:21:28.073Z,65.36
2023-03-28T01:24:11.380Z,64.56
2023-03-28T01:26:32.701Z,65.39
2023-03-28T01:29:02.904Z,65.27
2023-03-28T01:31:43.748Z,65.14
2023-03-28T01:34:20.786Z,64.83
2023-03-28T01:37:03.378Z,64.65
2023-03-28T01:39:14.911Z,65.17
2023-03-28T01:41:24.699Z,65.84
2023-03-28T01:43:34.830Z,65.08
2023-03-28T01:45:45.936Z,65.09
2023-03-28T01:47:55.027Z,65.40
2023-03-28T01:50:01.567Z,65.43
2023-03-28T01:52:14.459Z,65.24
2023-03-28T01:54:29.097Z,64.87
2023-03-28T01:56:38.793Z,65.57
2023-03-28T01:58:47.492Z,65.40
2023-03-28T02:00:56.238Z,65.94
2023-03-28T02:03:02.830Z,65.91
2023-03-28T02:05:09.851Z,65.58
2023-03-28T02:07:13.544Z,65.46
2023-03-28T02:09:17.814Z,65.58
2023-03-28T02:11:19.832Z,65.33
2023-03-28T02:13:25.981Z,65.18
2023-03-28T02:15:30.046Z,65.88
2023-03-28T02:17:38.452Z,65.13
2023-03-28T02:19:42.695Z,65.20
2023-03-28T02:21:52.297Z,64.78
2023-03-28T02:23:56.178Z,65.44
2023-03-28T02:25:58.948Z,65.34
2023-03-28T02:28:05.393Z,65.22
2023-03-28T02:30:09.239Z,65.49
2023-03-28T02:32:11.472Z,66.42
2023-03-28T02:34:13.115Z,65.93
2023-03-28T02:36:30.002Z,66.19
2023-03-28T02:38:43.049Z,66.36
2023-03-28T02:40:55.572Z,66.61
2023-03-28T02:43:31.538Z,65.62
2023-03-28T02:46:14.253Z,65.38
2023-03-28T02:48:28.263Z,66.61
2023-03-28T02:50:39.765Z,66.81
2023-03-28T02:52:50.728Z,66.96
2023-03-28T02:54:59.454Z,66.52
2023-03-28T02:57:07.436Z,66.46
2023-03-28T02:59:14.515Z,67.32
2023-03-28T03:01:16.172Z,67.34
2023-03-28T03:03:18.501Z,67.46
2023-03-28T03:05:21.489Z,66.57
2023-03-28T03:07:23.269Z,66.34
2023-03-28T03:09:26.009Z,66.91
2023-03-28T03:11:27.847Z,66.09
2023-03-28T03:13:31.099Z,65.73
2023-03-28T03:15:32.697Z,65.78
2023-03-28T03:17:34.786Z,65.44
2023-03-28T03:19:36.784Z,65.44
2023-03-28T03:21:38.416Z,65.47
2023-03-28T03:23:40.075Z,64.37
2023-03-28T03:25:42.915Z,64.37
2023-03-28T03:27:46.003Z,64.41
2023-03-28T03:29:49.672Z,63.48
2023-03-28T03:31:51.326Z,63.73
2023-03-28T03:33:53.139Z,63.30
2023-03-28T03:35:55.253Z,62.96
2023-03-28T03:37:57.163Z,63.11
2023-03-28T03:39:59.747Z,63.34
2023-03-28T03:42:01.780Z,63.38
2023-03-28T03:44:03.642Z,63.86
2023-03-28T03:46:07.162Z,63.76
2023-03-28T03:48:10.258Z,63.04
2023-03-28T03:50:12.417Z,63.95
2023-03-28T03:52:14.031Z,63.20
2023-03-28T03:54:16.230Z,63.35
2023-03-28T03:56:18.069Z,63.44
2023-03-28T03:58:20.591Z,63.43
2023-03-28T04:00:22.774Z,63.36
2023-03-28T04:02:26.233Z,63.78
2023-03-28T04:04:28.313Z,63.97
2023-03-28T04:06:34.132Z,63.84
2023-03-28T04:08:36.369Z,63.80
2023-03-28T04:10:38.206Z,62.83
2023-03-28T04:12:40.075Z,63.12
2023-03-28T04:14:41.886Z,63.33
2023-03-28T04:16:43.902Z,63.56
2023-03-28T04:18:47.324Z,63.11
2023-03-28T04:20:56.364Z,63.63
2023-03-28T04:22:58.887Z,63.38
2023-03-28T04:25:01.822Z,63.51
2023-03-28T04:27:03.628Z,63.22
2023-03-28T04:29:05.662Z,63.36
2023-03-28T04:31:07.835Z,63.35
2023-03-28T04:33:09.528Z,63.86
2023-03-28T04:35:12.832Z,63.76
2023-03-28T04:37:14.658Z,64.07
2023-03-28T04:39:16.684Z,63.89
2023-03-28T04:41:18.293Z,63.33
2023-03-28T04:43:20.541Z,63.65
2023-03-28T04:45:22.517Z,63.50
2023-03-28T04:47:24.245Z,64.16
2023-03-28T04:49:27.824Z,63.72
2023-03-28T04:51:31.030Z,63.97
2023-03-28T04:53:33.067Z,64.26
2023-03-28T04:55:35.009Z,63.42
2023-03-28T04:57:36.647Z,63.93
2023-03-28T04:59:38.426Z,63.71
2023-03-28T05:01:40.270Z,64.20
2023-03-28T05:03:41.901Z,64.03
2023-03-28T05:05:43.936Z,63.93
2023-03-28T05:07:46.901Z,64.29
2023-03-28T05:09:48.719Z,64.16
2023-03-28T05:11:50.575Z,63.24
2023-03-28T05:13:52.259Z,64.14
2023-03-28T05:15:53.911Z,63.86
2023-03-28T05:17:55.648Z,63.65
2023-03-28T05:19:57.803Z,64.21
2023-03-28T05:21:59.625Z,63.20
2023-03-28T05:24:02.838Z,64.15
2023-03-28T05:26:04.800Z,63.84
2023-03-28T05:28:06.474Z,63.78
2023-03-28T05:30:09.905Z,62.97
2023-03-28T05:32:12.696Z,64.00
2023-03-28T05:34:14.939Z,63.51
2023-03-28T05:36:16.564Z,62.68
2023-03-28T05:38:18.451Z,63.45
2023-03-28T05:40:22.020Z,62.45
2023-03-28T05:42:23.949Z,62.23
2023-03-28T05:44:25.858Z,63.00
2023-03-28T05:46:28.141Z,62.87
2023-03-28T05:48:30.434Z,62.74
2023-03-28T05:50:32.649Z,61.72
2023-03-28T05:52:34.583Z,61.22
2023-03-28T05:54:36.375Z,61.74
2023-03-28T05:56:39.422Z,61.74
2023-03-28T05:58:42.170Z,61.67
2023-03-28T06:00:44.241Z,60.72
2023-03-28T06:02:46.381Z,60.52
2023-03-28T06:04:48.340Z,60.06
2023-03-28T06:06:52.202Z,59.65
2023-03-28T06:08:54.832Z,59.75
2023-03-28T06:11:00.733Z,60.13
2023-03-28T06:13:04.860Z,59.86
2023-03-28T06:15:09.486Z,59.58
2023-03-28T06:17:11.381Z,59.91
2023-03-28T06:19:17.853Z,59.32
2023-03-28T06:21:20.597Z,59.09
2023-03-28T06:23:22.472Z,59.80
2023-03-28T06:25:24.081Z,59.91
2023-03-28T06:27:25.635Z,59.66
2023-03-28T06:29:28.717Z,60.38
2023-03-28T06:31:30.365Z,59.74
2023-03-28T06:33:32.167Z,59.81
2023-03-28T06:35:34.509Z,60.69
2023-03-28T06:37:36.103Z,60.06
2023-03-28T06:39:37.735Z,60.33
2023-03-28T06:41:39.348Z,59.52
2023-03-28T06:43:41.649Z,58.60
2023-03-28T06:45:47.390Z,58.58
2023-03-28T06:47:49.816Z,57.77
2023-03-28T06:49:53.406Z,56.83
2023-03-28T06:51:55.039Z,55.47
2023-03-28T06:53:56.651Z,55.91
2023-03-28T06:55:58.769Z,54.15
2023-03-28T06:58:00.422Z,54.12
2023-03-28T07:00:02.510Z,54.08
2023-03-28T07:02:05.800Z,53.32
2023-03-28T07:04:07.681Z,53.01
2023-03-28T07:06:10.764Z,52.11
2023-03-28T07:08:13.656Z,52.80
2023-03-28T07:10:15.454Z,52.50
2023-03-28T07:12:20.536Z,52.63
2023-03-28T07:14:23.044Z,52.25
2023-03-28T07:16:24.676Z,51.93
2023-03-28T07:18:28.086Z,50.08
2023-03-28T07:20:30.209Z,49.52
2023-03-28T07:22:32.445Z,50.23
2023-03-28T07:24:34.024Z,49.52
2023-03-28T07:26:35.840Z,49.85
2023-03-28T07:28:38.070Z,50.62
2023-03-28T07:30:40.326Z,50.16
2023-03-28T07:32:53.401Z,50.14
2023-03-28T07:34:59.896Z,50.70
2023-03-28T07:37:01.492Z,49.48
2023-03-28T07:39:03.349Z,49.11
2023-03-28T07:41:05.924Z,48.61
2023-03-28T07:43:07.865Z,48.84
2023-03-28T07:45:10.555Z,49.58
2023-03-28T07:47:12.275Z,48.09
2023-03-28T07:49:14.067Z,49.66
2023-03-28T07:51:17.312Z,49.18
2023-03-28T07:53:18.946Z,47.97
2023-03-28T07:55:20.447Z,48.07
2023-03-28T07:57:22.088Z,47.89
2023-03-28T07:59:23.954Z,48.53
2023-03-28T08:01:25.421Z,48.19
2023-03-28T08:03:27.072Z,48.79
2023-03-28T08:05:29.084Z,48.89
2023-03-28T08:07:32.352Z,46.25
2023-03-28T08:09:33.959Z,48.07
2023-03-28T08:11:36.095Z,48.31
2023-03-28T08:13:37.990Z,46.67
2023-03-28T08:15:39.912Z,48.53
2023-03-28T08:17:43.159Z,47.36
2023-03-28T08:19:44.764Z,47.89
2023-03-28T08:21:46.543Z,48.08
2023-03-28T08:23:49.598Z,47.41
2023-03-28T08:25:51.211Z,48.71
2023-03-28T08:27:53.796Z,47.71
2023-03-28T08:29:55.431Z,48.26
2023-03-28T08:31:57.327Z,46.25
2023-03-28T08:33:58.982Z,44.62
2023-03-28T08:36:01.235Z,44.97
2023-03-28T08:38:02.891Z,46.26
2023-03-28T08:40:13.831Z,49.29
2023-03-28T08:42:47.084Z,49.55
2023-03-28T08:45:02.697Z,49.09
2023-03-28T08:47:10.486Z,47.31
2023-03-28T08:49:16.873Z,47.03
2023-03-28T08:51:22.730Z,47.78
2023-03-28T08:53:28.818Z,46.99
2023-03-28T08:55:37.727Z,45.49
2023-03-28T08:57:41.502Z,44.29
2023-03-28T08:59:50.626Z,44.84
2023-03-28T09:01:52.720Z,43.63
2023-03-28T09:03:54.538Z,42.29
2023-03-28T09:06:04.802Z,43.49
2023-03-28T09:08:22.424Z,45.74
2023-03-28T09:10:30.768Z,45.37
2023-03-28T09:12:43.720Z,45.42
2023-03-28T09:15:14.207Z,42.24
2023-03-28T09:17:23.901Z,42.74
2023-03-28T09:19:47.949Z,42.85
2023-03-28T09:22:14.937Z,45.06
2023-03-28T09:24:33.917Z,45.50
2023-03-28T09:26:40.944Z,43.77
2023-03-28T09:28:52.522Z,45.30
2023-03-28T09:30:58.324Z,42.85
2023-03-28T09:33:05.648Z,41.90
2023-03-28T09:35:15.920Z,43.71
2023-03-28T09:37:27.582Z,43.22
2023-03-28T09:39:36.213Z,41.61
2023-03-28T09:41:49.493Z,43.79
2023-03-28T09:43:57.359Z,42.58
2023-03-28T09:46:05.102Z,42.19
2023-03-28T09:48:13.465Z,41.51
2023-03-28T09:50:17.770Z,41.44
2023-03-28T09:52:20.749Z,41.09
2023-03-28T09:54:29.203Z,43.36
2023-03-28T09:56:36.681Z,41.09
2023-03-28T09:58:49.233Z,43.57
2023-03-28T10:00:54.213Z,42.71
2023-03-28T10:02:56.342Z,40.45
2023-03-28T10:04:58.371Z,41.82
2023-03-28T10:07:28.405Z,44.22
2023-03-28T10:09:30.090Z,42.08
2023-03-28T10:11:44.934Z,40.30
2023-03-28T10:13:48.965Z,41.63
2023-03-28T10:15:55.690Z,40.16
2023-03-28T10:18:00.439Z,41.68
2023-03-28T10:20:04.842Z,40.29
2023-03-28T10:22:08.637Z,40.98
2023-03-28T10:24:14.086Z,41.76
2023-03-28T10:26:22.178Z,39.32
2023-03-28T10:28:30.646Z,39.43
2023-03-28T10:30:33.945Z,40.13
2023-03-28T10:32:37.466Z,43.55
2023-03-28T10:34:39.232Z,43.15
2023-03-28T10:36:42.671Z,43.44
2023-03-28T10:38:47.503Z,40.93
2023-03-28T10:40:53.632Z,41.69
2023-03-28T10:42:57.264Z,40.05
2023-03-28T10:45:00.419Z,40.65
2023-03-28T10:47:05.286Z,38.63
2023-03-28T10:49:14.995Z,40.46
2023-03-28T10:51:21.863Z,40.29
2023-03-28T10:53:36.578Z,38.79
2023-03-28T10:55:46.218Z,37.94
2023-03-28T10:58:00.034Z,38.10
2023-03-28T11:00:09.851Z,38.53
2023-03-28T11:02:30.582Z,38.81
2023-03-28T11:04:53.967Z,39.65
2023-03-28T11:07:05.180Z,40.43
2023-03-28T11:09:17.052Z,40.50
2023-03-28T11:11:33.213Z,39.68
2023-03-28T11:13:47.519Z,39.12
2023-03-28T11:15:57.874Z,37.41
2023-03-28T11:18:15.910Z,40.25
2023-03-28T11:20:29.310Z,38.19
2023-03-28T11:22:49.843Z,36.98
2023-03-28T11:25:17.137Z,38.73
2023-03-28T11:27:26.202Z,37.74
2023-03-28T11:29:43.198Z,38.33
2023-03-28T11:31:52.606Z,39.25
2023-03-28T11:34:01.822Z,39.59
2023-03-28T11:36:10.750Z,32.33
2023-03-28T11:38:16.523Z,35.17
2023-03-28T11:40:25.378Z,35.39
2023-03-28T11:42:32.284Z,34.22
2023-03-28T11:44:39.128Z,36.00
2023-03-28T11:46:47.431Z,37.21
2023-03-28T11:48:54.642Z,36.97
2023-03-28T11:51:03.621Z,36.66
2023-03-28T11:53:13.259Z,38.44
2023-03-28T11:55:19.162Z,35.91
2023-03-28T11:57:25.210Z,34.54
2023-03-28T11:59:33.677Z,35.89
2023-03-28T12:01:42.657Z,35.19
2023-03-28T12:03:54.895Z,37.00
2023-03-28T12:06:04.975Z,35.69
2023-03-28T12:08:12.171Z,36.10
2023-03-28T12:10:20.836Z,36.84
2023-03-28T12:12:28.500Z,33.31
2023-03-28T12:14:40.926Z,30.59
2023-03-28T12:16:48.896Z,31.91
2023-03-28T12:18:53.634Z,33.87
2023-03-28T12:21:02.345Z,35.98
2023-03-28T12:23:07.389Z,30.84
2023-03-28T12:25:19.349Z,29.97
2023-03-28T12:27:28.884Z,32.51
2023-03-28T12:29:40.303Z,34.21
2023-03-28T12:31:48.331Z,34.59
2023-03-28T12:33:58.547Z,31.80
2023-03-28T12:36:07.633Z,32.81
2023-03-28T12:38:27.584Z,35.62
2023-03-28T12:40:49.574Z,35.95
2023-03-28T12:42:54.198Z,31.99
2023-03-28T12:45:00.041Z,29.62
2023-03-28T12:47:07.972Z,27.10
2023-03-28T12:49:16.948Z,29.20
2023-03-28T12:51:26.385Z,33.30
2023-03-28T12:53:32.282Z,33.24
2023-03-28T12:55:47.494Z,36.61
2023-03-28T12:57:49.072Z,33.05
2023-03-28T13:00:14.411Z,35.94
2023-03-28T13:02:21.796Z,35.77
2023-03-28T13:04:31.868Z,34.63
2023-03-28T13:06:43.290Z,32.63
2023-03-28T13:09:16.718Z,31.66
2023-03-28T13:11:29.065Z,33.61
2023-03-28T13:13:38.609Z,31.91
2023-03-28T13:16:03.934Z,31.09
2023-03-28T13:18:27.230Z,34.56
2023-03-28T13:20:30.959Z,29.50
2023-03-28T13:22:41.905Z,28.35
2023-03-28T13:24:43.691Z,27.86
2023-03-28T13:26:58.086Z,33.05
2023-03-28T13:29:00.247Z,28.23
2023-03-28T13:31:11.842Z,32.62
2023-03-28T13:33:21.025Z,28.88
2023-03-28T13:35:43.844Z,32.34
2023-03-28T13:37:47.676Z,28.75
2023-03-28T13:39:57.924Z,31.72
2023-03-28T13:42:01.504Z,28.87
2023-03-28T13:44:09.326Z,28.34
2023-03-28T13:46:15.005Z,27.96
2023-03-28T13:48:17.222Z,28.86
2023-03-28T13:50:26.179Z,30.40
2023-03-28T13:52:27.811Z,27.54
2023-03-28T13:54:29.754Z,28.83
2023-03-28T13:56:33.471Z,28.46
2023-03-28T13:58:37.346Z,29.31
2023-03-28T14:00:39.420Z,29.71
2023-03-28T14:02:43.535Z,29.63
2023-03-28T14:04:51.910Z,29.20
2023-03-28T14:06:54.930Z,27.87
2023-03-28T14:09:00.459Z,26.90
2023-03-28T14:11:03.945Z,30.40
2023-03-28T14:13:10.617Z,29.12
2023-03-28T14:15:21.075Z,28.85
2023-03-28T14:17:26.821Z,27.85
2023-03-28T14:19:36.637Z,29.63
2023-03-28T14:21:38.619Z,28.02
2023-03-28T14:23:48.191Z,28.87
2023-03-28T14:25:50.074Z,28.14
2023-03-28T14:27:54.196Z,29.20
2023-03-28T14:29:58.586Z,26.97
2023-03-28T14:32:06.937Z,29.85
2023-03-28T14:34:22.650Z,31.00
2023-03-28T14:36:24.917Z,28.97
2023-03-28T14:38:33.251Z,30.29
2023-03-28T14:40:36.731Z,27.51
2023-03-28T14:42:38.356Z,28.34
2023-03-28T14:44:42.846Z,28.62
2023-03-28T14:46:44.521Z,28.83
2023-03-28T14:48:47.906Z,29.67
2023-03-28T14:50:53.635Z,28.43
2023-03-28T14:53:04.135Z,29.94
2023-03-28T14:55:07.545Z,29.07
2023-03-28T14:57:14.521Z,30.73
2023-03-28T14:59:18.387Z,30.90
2023-03-28T15:01:22.017Z,29.94
2023-03-28T15:03:30.291Z,28.32
2023-03-28T15:05:34.670Z,29.38
2023-03-28T15:07:37.745Z,29.02
2023-03-28T15:09:39.575Z,28.35
2023-03-28T15:11:43.340Z,29.66
2023-03-28T15:13:47.867Z,28.62
2023-03-28T15:15:50.159Z,27.81
2023-03-28T15:17:54.211Z,27.39
2023-03-28T15:19:57.628Z,29.33
2023-03-28T15:22:03.698Z,30.49
2023-03-28T15:24:10.042Z,28.83
2023-03-28T15:26:19.867Z,30.11
2023-03-28T15:28:22.126Z,28.70
2023-03-28T15:30:25.239Z,26.86
2023-03-28T15:32:28.282Z,27.63
2023-03-28T15:34:31.300Z,28.15
2023-03-28T15:36:33.875Z,28.57
2023-03-28T15:38:40.602Z,30.21
2023-03-28T15:40:44.241Z,29.88
2023-03-28T15:42:48.634Z,29.64
2023-03-28T15:45:24.711Z,31.64
2023-03-28T15:47:30.173Z,30.64
2023-03-28T15:49:36.088Z,31.24
2023-03-28T15:51:47.914Z,30.77
2023-03-28T15:53:51.077Z,30.12
2023-03-28T15:55:53.015Z,29.46
2023-03-28T15:57:55.471Z,30.24
2023-03-28T15:59:57.891Z,29.49
2023-03-28T16:02:31.059Z,31.92
2023-03-28T16:04:34.093Z,30.26
2023-03-28T16:06:41.483Z,30.78
2023-03-28T16:08:46.128Z,31.01
2023-03-28T16:10:49.044Z,30.16
2023-03-28T16:12:51.513Z,31.22
2023-03-28T16:14:54.522Z,31.63
2023-03-28T16:16:56.959Z,31.54
2023-03-28T16:18:59.299Z,32.76
2023-03-28T16:21:01.190Z,31.81
2023-03-28T16:23:02.843Z,31.82
2023-03-28T16:25:04.947Z,32.21
2023-03-28T16:27:07.878Z,32.66
2023-03-28T16:29:09.916Z,33.37
2023-03-28T16:31:14.610Z,33.94
2023-03-28T16:33:16.735Z,32.97
2023-03-28T16:35:18.982Z,34.11
2023-03-28T16:37:21.157Z,34.43
2023-03-28T16:39:22.732Z,34.04
2023-03-28T16:41:25.103Z,34.10
2023-03-28T16:43:28.344Z,35.49
2023-03-28T16:45:34.499Z,34.53
2023-03-28T16:47:36.303Z,35.49
2023-03-28T16:49:38.186Z,35.14
2023-03-28T16:51:39.780Z,35.49
2023-03-28T16:53:41.580Z,35.02
2023-03-28T16:55:43.220Z,35.40
2023-03-28T16:57:45.183Z,35.22
2023-03-28T16:59:48.339Z,35.93
2023-03-28T17:01:50.606Z,35.73
2023-03-28T17:03:52.412Z,36.23
2023-03-28T17:05:54.320Z,37.08
2023-03-28T17:07:56.126Z,36.80
2023-03-28T17:09:57.914Z,38.90
2023-03-28T17:12:00.946Z,38.67
2023-03-28T17:14:02.633Z,37.85
2023-03-28T17:16:07.137Z,38.44
2023-03-28T17:18:08.902Z,38.71
2023-03-28T17:20:11.424Z,39.41
2023-03-28T17:22:13.196Z,39.24
2023-03-28T17:24:14.974Z,39.81
2023-03-28T17:26:17.598Z,40.81
2023-03-28T17:28:19.605Z,40.44
2023-03-28T17:30:21.506Z,41.27
2023-03-28T17:32:24.602Z,40.61
2023-03-28T17:34:26.303Z,40.81
2023-03-28T17:36:29.214Z,41.44
2023-03-28T17:38:31.137Z,42.22
2023-03-28T17:40:32.937Z,41.57
2023-03-28T17:42:34.694Z,42.68
2023-03-28T17:44:36.696Z,42.31
2023-03-28T17:46:38.335Z,43.65
2023-03-28T17:48:42.218Z,41.96
2023-03-28T17:50:53.614Z,42.53
2023-03-28T17:52:55.236Z,43.35
2023-03-28T17:54:57.262Z,43.28
2023-03-28T17:56:58.882Z,44.62
2023-03-28T17:59:00.799Z,43.95
2023-03-28T18:01:02.610Z,44.50
2023-03-28T18:03:04.758Z,46.00
2023-03-28T18:05:08.586Z,45.10
2023-03-28T18:07:16.497Z,44.26
2023-03-28T18:09:19.648Z,44.50
2023-03-28T18:11:21.915Z,44.35
2023-03-28T18:13:23.826Z,44.98
2023-03-28T18:15:25.543Z,44.37
2023-03-28T18:17:27.211Z,43.65
2023-03-28T18:19:29.036Z,43.55
2023-03-28T18:21:32.836Z,43.20
2023-03-28T18:23:34.656Z,42.92
2023-03-28T18:25:36.426Z,42.53
2023-03-28T18:27:39.656Z,42.11
2023-03-28T18:29:41.220Z,42.65
2023-03-28T18:31:43.420Z,41.67
2023-03-28T18:33:45.419Z,41.95
2023-03-28T18:35:48.068Z,41.52
2023-03-28T18:37:51.119Z,43.46
2023-03-28T18:39:52.704Z,42.90
2023-03-28T18:41:57.173Z,44.54
2023-03-28T18:43:58.994Z,44.88
2023-03-28T18:46:01.605Z,44.16
2023-03-28T18:48:04.717Z,44.53
2023-03-28T18:50:08.086Z,43.94
2023-03-28T18:52:10.095Z,43.42
2023-03-28T18:54:13.269Z,43.61
2023-03-28T18:56:15.081Z,43.03
2023-03-28T18:58:16.948Z,44.33
2023-03-28T19:00:19.358Z,44.15
2023-03-28T19:02:21.171Z,45.09
2023-03-28T19:04:23.650Z,44.90
2023-03-28T19:06:25.401Z,44.62
2023-03-28T19:08:28.016Z,44.77
2023-03-28T19:10:31.397Z,44.71
2023-03-28T19:12:35.253Z,44.42
2023-03-28T19:14:38.989Z,43.82
2023-03-28T19:16:40.846Z,43.66
2023-03-28T19:18:44.208Z,44.29
2023-03-28T19:20:49.351Z,44.69
2023-03-28T19:22:51.170Z,44.99
2023-03-28T19:24:52.689Z,44.31
2023-03-28T19:26:57.621Z,44.71
2023-03-28T19:29:01.058Z,44.97
2023-03-28T19:31:05.381Z,45.25
2023-03-28T19:33:07.520Z,46.04
2023-03-28T19:35:10.109Z,45.56
2023-03-28T19:37:11.966Z,45.63
2023-03-28T19:39:16.473Z,45.88
2023-03-28T19:41:20.358Z,45.68
2023-03-28T19:43:23.839Z,46.00
2023-03-28T19:45:25.656Z,45.14
2023-03-28T19:47:27.260Z,45.67
2023-03-28T19:49:28.846Z,45.55
2023-03-28T19:51:30.632Z,45.25
2023-03-28T19:53:32.559Z,45.28
2023-03-28T19:55:34.401Z,45.49
2023-03-28T19:57:36.176Z,46.07
2023-03-28T19:59:39.266Z,45.83
2023-03-28T20:01:41.226Z,45.13
2023-03-28T20:03:43.232Z,45.62
2023-03-28T20:05:46.769Z,45.67
2023-03-28T20:07:48.588Z,45.95
2023-03-28T20:09:50.444Z,46.10
2023-03-28T20:11:52.245Z,45.60
2023-03-28T20:13:53.834Z,45.74
2023-03-28T20:15:56.931Z,45.68
2023-03-28T20:17:58.778Z,45.34
2023-03-28T20:20:00.484Z,46.81
2023-03-28T20:22:02.297Z,45.67
2023-03-28T20:24:04.394Z,46.50
2023-03-28T20:26:14.444Z,46.18
2023-03-28T20:28:16.296Z,45.94
2023-03-28T20:30:18.094Z,46.13
2023-03-28T20:32:21.327Z,45.78
2023-03-28T20:34:23.011Z,45.06
2023-03-28T20:36:25.052Z,45.04
2023-03-28T20:38:27.233Z,46.04
2023-03-28T20:40:29.183Z,45.76
2023-03-28T20:42:30.811Z,45.26
2023-03-28T20:44:32.845Z,46.05
2023-03-28T20:46:35.632Z,45.74
2023-03-28T20:48:39.565Z,46.07
2023-03-28T20:50:41.409Z,45.53
2023-03-28T20:52:43.109Z,46.04
2023-03-28T20:54:44.758Z,46.02
2023-03-28T20:56:47.034Z,45.70
2023-03-28T20:58:49.140Z,45.86
2023-03-28T21:00:55.487Z,45.66
2023-03-28T21:02:57.268Z,45.80
2023-03-28T21:05:00.423Z,46.25
2023-03-28T21:07:02.037Z,46.31
2023-03-28T21:09:06.337Z,46.18
2023-03-28T21:11:08.059Z,46.61
2023-03-28T21:13:09.916Z,46.86
2023-03-28T21:15:12.052Z,46.65
2023-03-28T21:17:13.934Z,46.92
2023-03-28T21:19:15.585Z,47.24
2023-03-28T21:21:19.896Z,46.99
2023-03-28T21:23:21.706Z,47.01
2023-03-28T21:25:23.242Z,46.80
2023-03-28T21:27:25.055Z,46.87
2023-03-28T21:29:26.652Z,46.67
2023-03-28T21:31:29.650Z,47.36
2023-03-28T21:33:31.868Z,47.41
2023-03-28T21:35:33.772Z,46.45
2023-03-28T21:37:36.947Z,47.07
2023-03-28T21:39:38.711Z,47.32
2023-03-28T21:41:40.525Z,47.70
2023-03-28T21:43:42.841Z,47.20
2023-03-28T21:45:44.822Z,46.44
2023-03-28T21:47:46.519Z,46.64
2023-03-28T21:49:48.422Z,46.76
2023-03-28T21:51:51.238Z,46.57
2023-03-28T21:53:54.425Z,46.31
2023-03-28T21:55:56.464Z,46.53
2023-03-28T21:57:58.273Z,46.78
2023-03-28T21:59:59.891Z,46.76
2023-03-28T22:02:01.717Z,47.08
2023-03-28T22:04:03.735Z,47.07
2023-03-28T22:06:06.192Z,46.28
2023-03-28T22:08:08.374Z,46.70
2023-03-28T22:10:12.541Z,46.87
2023-03-28T22:12:14.308Z,46.98
2023-03-28T22:14:15.884Z,47.26
2023-03-28T22:16:18.102Z,47.06
2023-03-28T22:18:20.848Z,47.63
2023-03-28T22:20:22.661Z,47.03
2023-03-28T22:22:24.265Z,47.31
2023-03-28T22:24:26.316Z,46.70
2023-03-28T22:26:30.146Z,46.93
2023-03-28T22:28:31.751Z,46.81
2023-03-28T22:30:34.595Z,47.67
2023-03-28T22:32:37.464Z,47.19
2023-03-28T22:34:39.324Z,47.41
2023-03-28T22:36:40.982Z,47.42
2023-03-28T22:38:42.754Z,47.41
2023-03-28T22:40:44.266Z,47.51
2023-03-28T22:42:47.360Z,47.81
2023-03-28T22:44:49.342Z,47.60
2023-03-28T22:46:51.577Z,47.27
2023-03-28T22:48:53.243Z,47.76
2023-03-28T22:50:54.852Z,47.33
2023-03-28T22:52:56.717Z,47.52
2023-03-28T22:54:58.300Z,47.41
2023-03-28T22:57:01.555Z,47.87
2023-03-28T22:59:04.647Z,47.16
2023-03-28T23:01:07.025Z,47.53
2023-03-28T23:03:08.775Z,47.94
2023-03-28T23:05:11.148Z,47.10
2023-03-28T23:07:12.968Z,47.71
2023-03-28T23:09:14.709Z,47.79
2023-03-28T23:11:16.455Z,48.02
2023-03-28T23:13:18.212Z,47.75
2023-03-28T23:15:21.829Z,47.56
2023-03-28T23:17:24.158Z,47.54
2023-03-28T23:19:25.729Z,47.99
2023-03-28T23:21:27.649Z,47.89
2023-03-28T23:23:29.547Z,48.13
2023-03-28T23:25:31.257Z,48.18
2023-03-28T23:27:33.097Z,48.26
2023-03-28T23:29:35.273Z,48.17
2023-03-28T23:31:38.876Z,47.86
2023-03-28T23:33:40.689Z,47.88
2023-03-28T23:35:42.802Z,47.90
2023-03-28T23:37:44.721Z,48.42
2023-03-28T23:39:46.585Z,47.84
2023-03-28T23:41:48.665Z,48.27
2023-03-28T23:43:50.661Z,47.62
2023-03-28T23:45:52.948Z,47.68
2023-03-28T23:47:56.085Z,48.51
2023-03-28T23:49:57.729Z,48.42
2023-03-28T23:51:59.487Z,48.25
2023-03-28T23:54:01.028Z,48.65
2023-03-28T23:56:02.820Z,47.95
2023-03-28T23:58:05.062Z,48.69
